Fotini Z — SVA7621 — position and weather

sailwx.info

Track history (hours):
 
Tides and Currents Weather Stations Pressure Air Temp Water Temp Dewpoint Dewpoint Depression Visibility Wind Speed Wind Dir Waves Ship Positions

Fotini Z

Last reported at 2017-Oct-06 11:18 UTC. Time now 2017-Nov-21 02:18 UTC.
Position N 39°21' E 023°56'.
Warning: this ship's position is 45 days out of date.

Length 38 m; draft 3.6 m.

Type: Tug. MMSI: 241500000.

Date/timePositionNaut miles runAvg speedWind from/ knotsBaromVisibWave heightAir tempDewpointWater temp
2017-Oct-06 11:18N 39°21' E 023°56'5 6.4
2017-Oct-06 10:32N 39°18' E 024°00'101 4.4
2017-Oct-05 11:28N 37°37' E 023°53'3 6.7
2017-Oct-05 11:00N 37°37' E 023°49'3 6.3
2017-Oct-05 10:30N 37°38' E 023°45'3 6.0
2017-Oct-05 10:00N 37°40' E 023°42'3 6.6
2017-Oct-05 09:30N 37°43' E 023°41'3 6.7
2017-Oct-05 09:01N 37°46' E 023°39'2 4.8
2017-Oct-05 08:30N 37°48' E 023°38'3 6.2
2017-Oct-05 08:00N 37°51' E 023°37'3 6.9
2017-Oct-05 07:30N 37°54' E 023°39'1 2.8
2017-Oct-05 06:58N 37°55' E 023°40'0 0.3
2017-Oct-05 06:28N 37°56' E 023°40'1 1.7
2017-Oct-05 06:00N 37°56' E 023°41'0 0.0
2017-Oct-05 05:30N 37°56' E 023°41'0 0.2
2017-Oct-05 05:00N 37°56' E 023°41'0 0.0
2017-Oct-05 04:30N 37°56' E 023°41'0 0.0
2017-Oct-05 04:00N 37°56' E 023°41'0 0.0
2017-Oct-05 03:30N 37°56' E 023°41'0 0.0
2017-Oct-05 03:00N 37°56' E 023°41'0 0.0
2017-Oct-05 02:30N 37°56' E 023°41'0 0.0
2017-Oct-05 02:00N 37°56' E 023°41'0 0.0
2017-Oct-05 01:30N 37°56' E 023°41'0 0.0
2017-Oct-05 01:00N 37°56' E 023°41'0 0.0
2017-Oct-05 00:30N 37°56' E 023°41'0 0.0
2017-Oct-05 00:00N 37°56' E 023°41'0 0.0
2017-Oct-04 23:30N 37°56' E 023°41'0 0.0
2017-Oct-04 23:00N 37°56' E 023°41'0 0.0
2017-Oct-04 22:30N 37°56' E 023°41'0 0.0
2017-Oct-04 22:00N 37°56' E 023°41'0 0.0
2017-Oct-04 21:30N 37°56' E 023°41'0 0.0
2017-Oct-04 21:00N 37°56' E 023°41'0 0.0
2017-Oct-04 20:30N 37°56' E 023°41'0 0.0
2017-Oct-04 20:00N 37°56' E 023°41'0 0.0
2017-Oct-04 19:30N 37°56' E 023°41'0 0.0
2017-Oct-04 19:00N 37°56' E 023°41'0 0.0
2017-Oct-04 18:30N 37°56' E 023°41'0 0.1
2017-Oct-04 18:00N 37°56' E 023°41'0 0.0
2017-Oct-04 17:30N 37°56' E 023°41'0 0.0
2017-Oct-04 17:00N 37°56' E 023°41'0 0.0
2017-Oct-04 16:30N 37°56' E 023°41'0 0.0
2017-Oct-04 16:00N 37°56' E 023°41'0 0.0
2017-Oct-04 15:30N 37°56' E 023°41'0 0.1
2017-Oct-04 15:00N 37°56' E 023°41'0 0.0
2017-Oct-04 14:27N 37°56' E 023°41'0 0.0
2017-Oct-04 14:00N 37°56' E 023°41'0 0.2
2017-Oct-04 13:30N 37°56' E 023°41'0 0.2
2017-Oct-04 13:00N 37°56' E 023°41'0 0.0
2017-Oct-04 12:30N 37°56' E 023°41'0 0.0
2017-Oct-04 12:00N 37°56' E 023°41'0 0.0
2017-Oct-04 11:30N 37°56' E 023°41'0 0.0
2017-Oct-04 11:00N 37°56' E 023°41'2 4.1
2017-Oct-04 10:31N 37°55' E 023°39'2 4.9
2017-Oct-04 10:00N 37°57' E 023°36'0 0.0
2017-Oct-04 09:30N 37°57' E 023°36'0 0.0
2017-Oct-04 09:00N 37°57' E 023°36'0 0.0
2017-Oct-04 08:30N 37°57' E 023°36'0 0.0
2017-Oct-04 08:00N 37°57' E 023°36'0 0.0
2017-Oct-04 07:30N 37°57' E 023°36'0 0.0
2017-Oct-04 07:00N 37°57' E 023°36'0 0.0
2017-Oct-04 06:30N 37°57' E 023°36'0 0.0
2017-Oct-04 06:00N 37°57' E 023°36'0 0.0
2017-Oct-04 05:30N 37°57' E 023°36'0 0.0
2017-Oct-04 05:00N 37°57' E 023°36'0 0.0
2017-Oct-04 04:30N 37°57' E 023°36'0 0.0
2017-Oct-04 04:00N 37°57' E 023°36'0 0.0
2017-Oct-04 03:30N 37°57' E 023°36'0 0.0
2017-Oct-04 03:00N 37°57' E 023°36'0 0.0
2017-Oct-04 02:30N 37°57' E 023°36'0 0.0
2017-Oct-04 02:00N 37°57' E 023°36'0 0.0
2017-Oct-04 01:30N 37°57' E 023°36'0 0.0
2017-Oct-04 00:57N 37°57' E 023°36'0 0.0
2017-Oct-04 00:30N 37°57' E 023°36'0 0.0
2017-Oct-04 00:00N 37°57' E 023°36'0 0.0
2017-Oct-03 23:30N 37°57' E 023°36'0 0.0
2017-Oct-03 23:00N 37°57' E 023°36'0 0.0
2017-Oct-03 22:30N 37°57' E 023°36'0 0.0
2017-Oct-03 22:00N 37°57' E 023°36'0 0.0
2017-Oct-03 21:30N 37°57' E 023°36'0 0.0
2017-Oct-03 21:00N 37°57' E 023°36'0 0.0
2017-Oct-03 20:30N 37°57' E 023°36'0 0.0
2017-Oct-03 20:00N 37°57' E 023°36'0 0.0
2017-Oct-03 19:30N 37°57' E 023°36'0 0.0
2017-Oct-03 19:00N 37°57' E 023°36'0 0.0
2017-Oct-03 18:30N 37°57' E 023°36'0 0.0
2017-Oct-03 18:00N 37°57' E 023°36'0 0.0
2017-Oct-03 17:30N 37°57' E 023°36'0 0.0
2017-Oct-03 17:00N 37°57' E 023°36'0 0.0
2017-Oct-03 16:30N 37°57' E 023°36'0 0.0
2017-Oct-03 16:00N 37°57' E 023°36'0 0.0
2017-Oct-03 15:30N 37°57' E 023°36'0 0.0
2017-Oct-03 15:00N 37°57' E 023°36'0 0.0
2017-Oct-03 14:00N 37°57' E 023°36'0 0.0
2017-Oct-03 13:30N 37°57' E 023°36'0 0.0
2017-Oct-03 13:00N 37°57' E 023°36'0 0.0
2017-Oct-03 12:30N 37°57' E 023°36'0 0.0
2017-Oct-03 12:00N 37°57' E 023°36'0 0.0
2017-Oct-03 11:30N 37°57' E 023°36'0 0.0
2017-Oct-03 11:00N 37°57' E 023°36'0 0.0
2017-Oct-03 10:30N 37°57' E 023°36'0 0.0
2017-Oct-03 10:00N 37°57' E 023°36'0 0.0
2017-Oct-03 09:30N 37°57' E 023°36'0 0.0
2017-Oct-03 09:00N 37°57' E 023°36'0 0.0
2017-Oct-03 08:30N 37°57' E 023°36'0 0.0
2017-Oct-03 08:00N 37°57' E 023°36'0 0.0
2017-Oct-03 07:30N 37°57' E 023°36'0 0.0
2017-Oct-03 07:00N 37°57' E 023°36'0 0.0
2017-Oct-03 06:30N 37°57' E 023°36'0 0.0
2017-Oct-03 06:00N 37°57' E 023°36'0 0.0
2017-Oct-03 05:30N 37°57' E 023°36'0 0.0
2017-Oct-03 05:00N 37°57' E 023°36'0 0.0
2017-Oct-03 04:30N 37°57' E 023°36'0 0.0
2017-Oct-03 04:00N 37°57' E 023°36'0 0.0
2017-Oct-03 03:30N 37°57' E 023°36'0 0.0
2017-Oct-03 03:00N 37°57' E 023°36'0 0.0
2017-Oct-03 02:30N 37°57' E 023°36'0 0.0
2017-Oct-03 02:00N 37°57' E 023°36'0 0.0
2017-Oct-03 01:30N 37°57' E 023°36'0 0.0
2017-Oct-03 01:00N 37°57' E 023°36'0 0.0
2017-Oct-03 00:30N 37°57' E 023°36'0 0.0
2017-Oct-03 00:00N 37°57' E 023°36'0 0.0
2017-Oct-02 23:30N 37°57' E 023°36'0 0.0
2017-Oct-02 23:00N 37°57' E 023°36'0 0.0
2017-Oct-02 22:30N 37°57' E 023°36'0 0.0
2017-Oct-02 22:00N 37°57' E 023°36'0 0.0
2017-Oct-02 21:30N 37°57' E 023°36'0 0.0
2017-Oct-02 21:00N 37°57' E 023°36'0 0.0
2017-Oct-02 20:30N 37°57' E 023°36'0 0.0
2017-Oct-02 20:00N 37°57' E 023°36'0 0.0
2017-Oct-02 19:30N 37°57' E 023°36'0 0.0
2017-Oct-02 19:00N 37°57' E 023°36'0 0.0
2017-Oct-02 18:30N 37°57' E 023°36'0 0.0
2017-Oct-02 18:00N 37°57' E 023°36'0 0.0
2017-Oct-02 17:30N 37°57' E 023°36'0 0.0
2017-Oct-02 17:00N 37°57' E 023°36'0 0.0
2017-Oct-02 16:30N 37°57' E 023°36'0 0.0
2017-Oct-02 16:00N 37°57' E 023°36'0 0.0
2017-Oct-02 15:30N 37°57' E 023°36'0 0.0
2017-Oct-02 15:00N 37°57' E 023°36'0 0.0
2017-Oct-02 14:30N 37°57' E 023°36'0 0.0
2017-Oct-02 14:00N 37°57' E 023°36'0 0.0
2017-Oct-02 13:30N 37°57' E 023°36'0 0.0
2017-Oct-02 13:00N 37°57' E 023°36'0 0.0
2017-Oct-02 12:30N 37°57' E 023°36'0 0.0
2017-Oct-02 12:00N 37°57' E 023°36'0 0.0
2017-Oct-02 11:30N 37°57' E 023°36'0 0.0
2017-Oct-02 11:00N 37°57' E 023°36'0 0.0
2017-Oct-02 10:30N 37°57' E 023°36'0 0.0
2017-Oct-02 10:00N 37°57' E 023°36'0 0.0
2017-Oct-02 09:30N 37°57' E 023°36'0 0.0
2017-Oct-02 09:00N 37°57' E 023°36'0 0.0
2017-Oct-02 08:30N 37°57' E 023°36'0 0.0
2017-Oct-02 07:57N 37°57' E 023°36'0 0.0
2017-Oct-02 07:30N 37°57' E 023°36'0 0.0
2017-Oct-02 07:00N 37°57' E 023°36'0 0.0
2017-Oct-02 06:30N 37°57' E 023°36'1 1.6
2017-Oct-02 05:59N 37°57' E 023°35'1 1.8
2017-Oct-02 05:30N 37°56' E 023°35'1 2.6
2017-Oct-02 05:00N 37°57' E 023°36'0 0.0
2017-Oct-02 04:30N 37°57' E 023°36'0 0.0
2017-Oct-02 04:00N 37°57' E 023°36'0 0.0
2017-Oct-02 03:30N 37°57' E 023°36'1 2.5
2017-Oct-02 03:00N 37°56' E 023°38'0 0.4
2017-Oct-02 02:29N 37°56' E 023°38'1 2.8
2017-Oct-02 01:59N 37°57' E 023°36'0 0.0
2017-Oct-01 11:29N 37°57' E 023°36'0 0.0
2017-Oct-01 10:59N 37°57' E 023°36'0 0.2
2017-Oct-01 10:29N 37°57' E 023°36'0 0.2
2017-Oct-01 09:59N 37°57' E 023°36'0 0.0
2017-Oct-01 09:29N 37°57' E 023°36'0 0.0
2017-Oct-01 08:59N 37°57' E 023°36'0 0.0
2017-Oct-01 08:29N 37°57' E 023°36'0 0.0
2017-Oct-01 07:59N 37°57' E 023°36'0 0.0
2017-Oct-01 07:29N 37°57' E 023°36'0 0.0
2017-Oct-01 06:59N 37°57' E 023°36'0 0.0
2017-Oct-01 06:29N 37°57' E 023°36'0 0.0
2017-Oct-01 05:59N 37°57' E 023°36'0 0.0
2017-Oct-01 05:26N 37°57' E 023°36'0 0.0
2017-Oct-01 04:59N 37°57' E 023°36'0 0.0
2017-Oct-01 04:29N 37°57' E 023°36'0 0.0
2017-Oct-01 03:59N 37°57' E 023°36'0 0.0
2017-Oct-01 03:29N 37°57' E 023°36'0 0.0
2017-Oct-01 02:59N 37°57' E 023°36'0 0.0
2017-Sep-30 01:59N 37°57' E 023°36'0 0.0
2017-Sep-30 01:29N 37°57' E 023°36'0 0.0
2017-Sep-30 00:59N 37°57' E 023°36'0 0.0
2017-Sep-30 00:29N 37°57' E 023°36'0 0.0
2017-Sep-29 23:59N 37°57' E 023°36'0 0.0
2017-Sep-29 23:29N 37°57' E 023°36'0 0.0
2017-Sep-29 22:59N 37°57' E 023°36'0 0.0
2017-Sep-29 22:29N 37°57' E 023°36'0 0.0
2017-Sep-29 21:59N 37°57' E 023°36'0 0.0
2017-Sep-29 21:29N 37°57' E 023°36'0 0.0
2017-Sep-29 20:59N 37°57' E 023°36'0 0.0
2017-Sep-29 20:29N 37°57' E 023°36'0 0.0
2017-Sep-29 19:59N 37°57' E 023°36'0 0.0
2017-Sep-29 19:29N 37°57' E 023°36'0 0.0
2017-Sep-29 18:59N 37°57' E 023°36'0 0.0
2017-Sep-29 18:29N 37°57' E 023°36'0 0.0
2017-Sep-29 17:59N 37°57' E 023°36'0 0.0
2017-Sep-29 17:29N 37°57' E 023°36'0 0.0
2017-Sep-29 16:59N 37°57' E 023°36'0 0.0
2017-Sep-29 16:29N 37°57' E 023°36'0 0.0
2017-Sep-29 15:59N 37°57' E 023°36'0 0.0
2017-Sep-29 15:29N 37°57' E 023°36'0 0.0
2017-Sep-29 14:59N 37°57' E 023°36'0 0.0
2017-Sep-29 14:29N 37°57' E 023°36'0 0.0
2017-Sep-29 13:59N 37°57' E 023°36'0 0.0
2017-Sep-29 13:29N 37°57' E 023°36'0 0.0
2017-Sep-29 12:56N 37°57' E 023°36'0 0.0
2017-Sep-29 12:29N 37°57' E 023°36'0 0.0
2017-Sep-29 11:59N 37°57' E 023°36'0 0.0
2017-Sep-29 11:29N 37°57' E 023°36'0 0.0
2017-Sep-29 10:59N 37°57' E 023°36'0 0.0
2017-Sep-29 10:29N 37°57' E 023°36'0 0.0
2017-Sep-29 09:59N 37°57' E 023°36'0 0.0
2017-Sep-29 09:29N 37°57' E 023°36'0 0.0
2017-Sep-29 08:59N 37°57' E 023°36'0 0.0
2017-Sep-29 08:29N 37°57' E 023°36'0 0.0
2017-Sep-29 07:59N 37°57' E 023°36'0 0.0
2017-Sep-29 07:29N 37°57' E 023°36'0 0.0
2017-Sep-29 06:59N 37°57' E 023°36'0 0.0
2017-Sep-29 06:26N 37°57' E 023°36'0 0.0
2017-Sep-29 05:59N 37°57' E 023°36'0 0.0
2017-Sep-29 05:29N 37°57' E 023°36'0 0.0
2017-Sep-29 04:59N 37°57' E 023°36'0 0.0
2017-Sep-29 04:29N 37°57' E 023°36'0 0.0
2017-Sep-29 03:59N 37°57' E 023°36'0 0.0
2017-Sep-29 03:29N 37°57' E 023°36'0 0.0
2017-Sep-29 02:59N 37°57' E 023°36'0 0.0
2017-Sep-29 02:29N 37°57' E 023°36'0 0.0
2017-Sep-29 01:59N 37°57' E 023°36'0 0.0
2017-Sep-29 01:29N 37°57' E 023°36'0 0.0
2017-Sep-29 00:56N 37°57' E 023°36'0 0.0
2017-Sep-29 00:29N 37°57' E 023°36'0 0.0
2017-Sep-28 23:59N 37°57' E 023°36'0 0.0
2017-Sep-28 23:29N 37°57' E 023°36'0 0.0
2017-Sep-28 22:53N 37°57' E 023°36'0 0.0
2017-Sep-28 22:29N 37°57' E 023°36'0 0.0
2017-Sep-28 21:59N 37°57' E 023°36'0 0.0
2017-Sep-28 21:29N 37°57' E 023°36'0 0.0
2017-Sep-28 20:59N 37°57' E 023°36'0 0.0
2017-Sep-28 20:29N 37°57' E 023°36'0 0.0
2017-Sep-28 19:59N 37°57' E 023°36'0 0.0
2017-Sep-28 19:29N 37°57' E 023°36'0 0.0
2017-Sep-28 18:59N 37°57' E 023°36'0 0.0
2017-Sep-28 18:29N 37°57' E 023°36'0 0.0
2017-Sep-28 17:59N 37°57' E 023°36'0 0.0
2017-Sep-28 17:29N 37°57' E 023°36'0 0.0
2017-Sep-28 16:56N 37°57' E 023°36'0 0.0
2017-Sep-28 16:29N 37°57' E 023°36'0 0.0
2017-Sep-28 15:59N 37°57' E 023°36'0 0.0
2017-Sep-28 15:29N 37°57' E 023°36'0 0.0
2017-Sep-28 14:59N 37°57' E 023°36'0 0.0
2017-Sep-28 14:29N 37°57' E 023°36'0 0.0
2017-Sep-28 13:59N 37°57' E 023°36'0 0.0
2017-Sep-28 13:29N 37°57' E 023°36'0 0.0
2017-Sep-28 12:59N 37°57' E 023°36'0 0.0
2017-Sep-28 12:29N 37°57' E 023°36'0 0.0
2017-Sep-28 11:59N 37°57' E 023°36'0 0.0
2017-Sep-28 11:29N 37°57' E 023°36'0 0.0
2017-Sep-28 10:59N 37°57' E 023°36'0 0.0
2017-Sep-28 10:29N 37°57' E 023°36'0 0.0
2017-Sep-28 09:59N 37°57' E 023°36'0 0.0
2017-Sep-28 09:29N 37°57' E 023°36'0 0.0
2017-Sep-28 08:59N 37°57' E 023°36'0 0.0
2017-Sep-28 08:29N 37°57' E 023°36'0 0.0
2017-Sep-28 07:59N 37°57' E 023°36'0 0.0
2017-Sep-28 07:26N 37°57' E 023°36'0 0.0
2017-Sep-28 06:59N 37°57' E 023°36'0 0.0
2017-Sep-28 06:29N 37°57' E 023°36'0 0.0
2017-Sep-28 05:59N 37°57' E 023°36'0 0.0
2017-Sep-28 05:26N 37°57' E 023°36'0 0.0
2017-Sep-28 04:59N 37°57' E 023°36'0 0.0
2017-Sep-28 04:29N 37°57' E 023°36'0 0.0
2017-Sep-28 03:59N 37°57' E 023°36'0 0.0
2017-Sep-28 03:29N 37°57' E 023°36'0 0.0
2017-Sep-28 02:59N 37°57' E 023°36'0 0.0
2017-Sep-28 02:29N 37°57' E 023°36'0 0.0
2017-Sep-28 01:59N 37°57' E 023°36'0 0.0
2017-Sep-28 01:29N 37°57' E 023°36'0 0.0
2017-Sep-28 00:56N 37°57' E 023°36'0 0.0
2017-Sep-28 00:26N 37°57' E 023°36'0 0.0
2017-Sep-27 23:59N 37°57' E 023°36'0 0.0
2017-Sep-27 23:29N 37°57' E 023°36'0 0.0
2017-Sep-27 22:59N 37°57' E 023°36'0 0.0
2017-Sep-27 22:29N 37°57' E 023°36'0 0.0
2017-Sep-27 21:59N 37°57' E 023°36'0 0.0
2017-Sep-27 21:29N 37°57' E 023°36'0 0.0
2017-Sep-27 20:59N 37°57' E 023°36'0 0.0
2017-Sep-27 20:29N 37°57' E 023°36'0 0.0
2017-Sep-27 19:59N 37°57' E 023°36'0 0.0
2017-Sep-27 19:29N 37°57' E 023°36'0 0.0
2017-Sep-27 18:56N 37°57' E 023°36'0 0.0
2017-Sep-27 18:29N 37°57' E 023°36'0 0.0
2017-Sep-27 17:59N 37°57' E 023°36'0 0.0
2017-Sep-27 17:29N 37°57' E 023°36'0 0.0
2017-Sep-27 16:59N 37°57' E 023°36'0 0.0
2017-Sep-27 16:29N 37°57' E 023°36'0 0.0
2017-Sep-27 15:59N 37°57' E 023°36'0 0.0
2017-Sep-27 15:29N 37°57' E 023°36'0 0.0
2017-Sep-27 14:56N 37°57' E 023°36'0 0.0
2017-Sep-27 14:29N 37°57' E 023°36'0 0.0
2017-Sep-27 13:59N 37°57' E 023°36'0 0.0
2017-Sep-27 13:29N 37°57' E 023°36'0 0.0
2017-Sep-27 12:59N 37°57' E 023°36'0 0.0
2017-Sep-27 12:29N 37°57' E 023°36'0 0.0
2017-Sep-27 11:59N 37°57' E 023°36'0 0.0
2017-Sep-27 11:29N 37°57' E 023°36'0 0.0
2017-Sep-27 10:59N 37°57' E 023°36'0 0.0
2017-Sep-27 10:29N 37°57' E 023°36'0 0.0
2017-Sep-27 09:59N 37°57' E 023°36'0 0.0
2017-Sep-27 09:29N 37°57' E 023°36'1 1.1
2017-Sep-27 08:59N 37°57' E 023°37'0 0.0
2017-Sep-27 08:29N 37°57' E 023°37'0 0.0
2017-Sep-27 07:59N 37°57' E 023°37'0 0.0
2017-Sep-27 07:29N 37°57' E 023°37'0 0.0
2017-Sep-27 06:59N 37°57' E 023°37'0 0.0
2017-Sep-27 06:29N 37°57' E 023°37'0 0.0
2017-Sep-27 05:59N 37°57' E 023°37'0 0.9
2017-Sep-27 05:30N 37°57' E 023°36'0 0.5
2017-Sep-27 04:59N 37°57' E 023°36'0 0.0
2017-Sep-27 04:29N 37°57' E 023°36'0 0.0
2017-Sep-27 03:59N 37°57' E 023°36'0 0.0
2017-Sep-27 03:29N 37°57' E 023°36'0 0.0
2017-Sep-27 02:59N 37°57' E 023°36'0 0.0
2017-Sep-27 02:29N 37°57' E 023°36'0 0.0
2017-Sep-27 01:59N 37°57' E 023°36'0 0.0
2017-Sep-27 01:29N 37°57' E 023°36'0 0.0
2017-Sep-27 00:59N 37°57' E 023°36'0 0.0
2017-Sep-27 00:29N 37°57' E 023°36'0 0.0
2017-Sep-26 23:59N 37°57' E 023°36'0 0.0
2017-Sep-26 23:29N 37°57' E 023°36'0 0.0
2017-Sep-26 22:59N 37°57' E 023°36'0 0.0
2017-Sep-26 22:29N 37°57' E 023°36'0 0.0
2017-Sep-26 21:59N 37°57' E 023°36'0 0.0
2017-Sep-26 21:29N 37°57' E 023°36'0 0.0
2017-Sep-26 20:59N 37°57' E 023°36'0 0.0
2017-Sep-26 20:29N 37°57' E 023°36'0 0.0
2017-Sep-26 19:59N 37°57' E 023°36'0 0.0
2017-Sep-26 19:29N 37°57' E 023°36'0 0.0
2017-Sep-26 18:59N 37°57' E 023°36'0 0.0
2017-Sep-26 18:29N 37°57' E 023°36'0 0.0
2017-Sep-26 17:59N 37°57' E 023°36'0 0.0
2017-Sep-26 17:29N 37°57' E 023°36'0 0.0
2017-Sep-26 16:59N 37°57' E 023°36'0 0.0
2017-Sep-26 16:29N 37°57' E 023°36'0 0.0
2017-Sep-26 15:59N 37°57' E 023°36'0 0.0
2017-Sep-26 15:29N 37°57' E 023°36'0 0.0
2017-Sep-26 14:59N 37°57' E 023°36'0 0.0
2017-Sep-26 14:29N 37°57' E 023°36'0 0.0
2017-Sep-26 13:59N 37°57' E 023°36'0 0.0
2017-Sep-26 13:29N 37°57' E 023°36'0 0.0
2017-Sep-26 12:59N 37°57' E 023°36'0 0.0
2017-Sep-26 12:29N 37°57' E 023°36'0 0.0
2017-Sep-26 11:59N 37°57' E 023°36'0 0.0
2017-Sep-26 11:29N 37°57' E 023°36'  
Track history (hours):
 
Tides and Currents Weather Stations Pressure Air Temp Water Temp Dewpoint Dewpoint Depression Visibility Wind Speed Wind Dir Waves Ship Positions

Fotini Z

Last reported at 2017-Oct-06 11:18 UTC. Time now 2017-Nov-21 02:18 UTC.
Position N 39°21' E 023°56'.
Warning: this ship's position is 45 days out of date.

Length 38 m; draft 3.6 m.

Type: Tug. MMSI: 241500000.

Date/timePositionNaut miles runAvg speedWind from/ knotsBaromVisibWave heightAir tempDewpointWater temp
2017-Oct-06 11:18N 39°21' E 023°56'5 6.4
2017-Oct-06 10:32N 39°18' E 024°00'101 4.4
2017-Oct-05 11:28N 37°37' E 023°53'3 6.7
2017-Oct-05 11:00N 37°37' E 023°49'3 6.3
2017-Oct-05 10:30N 37°38' E 023°45'3 6.0
2017-Oct-05 10:00N 37°40' E 023°42'3 6.6
2017-Oct-05 09:30N 37°43' E 023°41'3 6.7
2017-Oct-05 09:01N 37°46' E 023°39'2 4.8
2017-Oct-05 08:30N 37°48' E 023°38'3 6.2
2017-Oct-05 08:00N 37°51' E 023°37'3 6.9
2017-Oct-05 07:30N 37°54' E 023°39'1 2.8
2017-Oct-05 06:58N 37°55' E 023°40'0 0.3
2017-Oct-05 06:28N 37°56' E 023°40'1 1.7
2017-Oct-05 06:00N 37°56' E 023°41'0 0.0
2017-Oct-05 05:30N 37°56' E 023°41'0 0.2
2017-Oct-05 05:00N 37°56' E 023°41'0 0.0
2017-Oct-05 04:30N 37°56' E 023°41'0 0.0
2017-Oct-05 04:00N 37°56' E 023°41'0 0.0
2017-Oct-05 03:30N 37°56' E 023°41'0 0.0
2017-Oct-05 03:00N 37°56' E 023°41'0 0.0
2017-Oct-05 02:30N 37°56' E 023°41'0 0.0
2017-Oct-05 02:00N 37°56' E 023°41'0 0.0
2017-Oct-05 01:30N 37°56' E 023°41'0 0.0
2017-Oct-05 01:00N 37°56' E 023°41'0 0.0
2017-Oct-05 00:30N 37°56' E 023°41'0 0.0
2017-Oct-05 00:00N 37°56' E 023°41'0 0.0
2017-Oct-04 23:30N 37°56' E 023°41'0 0.0
2017-Oct-04 23:00N 37°56' E 023°41'0 0.0
2017-Oct-04 22:30N 37°56' E 023°41'0 0.0
2017-Oct-04 22:00N 37°56' E 023°41'0 0.0
2017-Oct-04 21:30N 37°56' E 023°41'0 0.0
2017-Oct-04 21:00N 37°56' E 023°41'0 0.0
2017-Oct-04 20:30N 37°56' E 023°41'0 0.0
2017-Oct-04 20:00N 37°56' E 023°41'0 0.0
2017-Oct-04 19:30N 37°56' E 023°41'0 0.0
2017-Oct-04 19:00N 37°56' E 023°41'0 0.0
2017-Oct-04 18:30N 37°56' E 023°41'0 0.1
2017-Oct-04 18:00N 37°56' E 023°41'0 0.0
2017-Oct-04 17:30N 37°56' E 023°41'0 0.0
2017-Oct-04 17:00N 37°56' E 023°41'0 0.0
2017-Oct-04 16:30N 37°56' E 023°41'0 0.0
2017-Oct-04 16:00N 37°56' E 023°41'0 0.0
2017-Oct-04 15:30N 37°56' E 023°41'0 0.1
2017-Oct-04 15:00N 37°56' E 023°41'0 0.0
2017-Oct-04 14:27N 37°56' E 023°41'0 0.0
2017-Oct-04 14:00N 37°56' E 023°41'0 0.2
2017-Oct-04 13:30N 37°56' E 023°41'0 0.2
2017-Oct-04 13:00N 37°56' E 023°41'0 0.0
2017-Oct-04 12:30N 37°56' E 023°41'0 0.0
2017-Oct-04 12:00N 37°56' E 023°41'0 0.0
2017-Oct-04 11:30N 37°56' E 023°41'0 0.0
2017-Oct-04 11:00N 37°56' E 023°41'2 4.1
2017-Oct-04 10:31N 37°55' E 023°39'2 4.9
2017-Oct-04 10:00N 37°57' E 023°36'0 0.0
2017-Oct-04 09:30N 37°57' E 023°36'0 0.0
2017-Oct-04 09:00N 37°57' E 023°36'0 0.0
2017-Oct-04 08:30N 37°57' E 023°36'0 0.0
2017-Oct-04 08:00N 37°57' E 023°36'0 0.0
2017-Oct-04 07:30N 37°57' E 023°36'0 0.0
2017-Oct-04 07:00N 37°57' E 023°36'0 0.0
2017-Oct-04 06:30N 37°57' E 023°36'0 0.0
2017-Oct-04 06:00N 37°57' E 023°36'0 0.0
2017-Oct-04 05:30N 37°57' E 023°36'0 0.0
2017-Oct-04 05:00N 37°57' E 023°36'0 0.0
2017-Oct-04 04:30N 37°57' E 023°36'0 0.0
2017-Oct-04 04:00N 37°57' E 023°36'0 0.0
2017-Oct-04 03:30N 37°57' E 023°36'0 0.0
2017-Oct-04 03:00N 37°57' E 023°36'0 0.0
2017-Oct-04 02:30N 37°57' E 023°36'0 0.0
2017-Oct-04 02:00N 37°57' E 023°36'0 0.0
2017-Oct-04 01:30N 37°57' E 023°36'0 0.0
2017-Oct-04 00:57N 37°57' E 023°36'0 0.0
2017-Oct-04 00:30N 37°57' E 023°36'0 0.0
2017-Oct-04 00:00N 37°57' E 023°36'0 0.0
2017-Oct-03 23:30N 37°57' E 023°36'0 0.0
2017-Oct-03 23:00N 37°57' E 023°36'0 0.0
2017-Oct-03 22:30N 37°57' E 023°36'0 0.0
2017-Oct-03 22:00N 37°57' E 023°36'0 0.0
2017-Oct-03 21:30N 37°57' E 023°36'0 0.0
2017-Oct-03 21:00N 37°57' E 023°36'0 0.0
2017-Oct-03 20:30N 37°57' E 023°36'0 0.0
2017-Oct-03 20:00N 37°57' E 023°36'0 0.0
2017-Oct-03 19:30N 37°57' E 023°36'0 0.0
2017-Oct-03 19:00N 37°57' E 023°36'0 0.0
2017-Oct-03 18:30N 37°57' E 023°36'0 0.0
2017-Oct-03 18:00N 37°57' E 023°36'0 0.0
2017-Oct-03 17:30N 37°57' E 023°36'0 0.0
2017-Oct-03 17:00N 37°57' E 023°36'0 0.0
2017-Oct-03 16:30N 37°57' E 023°36'0 0.0
2017-Oct-03 16:00N 37°57' E 023°36'0 0.0
2017-Oct-03 15:30N 37°57' E 023°36'0 0.0
2017-Oct-03 15:00N 37°57' E 023°36'0 0.0
2017-Oct-03 14:00N 37°57' E 023°36'0 0.0
2017-Oct-03 13:30N 37°57' E 023°36'0 0.0
2017-Oct-03 13:00N 37°57' E 023°36'0 0.0
2017-Oct-03 12:30N 37°57' E 023°36'0 0.0
2017-Oct-03 12:00N 37°57' E 023°36'0 0.0
2017-Oct-03 11:30N 37°57' E 023°36'0 0.0
2017-Oct-03 11:00N 37°57' E 023°36'0 0.0
2017-Oct-03 10:30N 37°57' E 023°36'0 0.0
2017-Oct-03 10:00N 37°57' E 023°36'0 0.0
2017-Oct-03 09:30N 37°57' E 023°36'0 0.0
2017-Oct-03 09:00N 37°57' E 023°36'0 0.0
2017-Oct-03 08:30N 37°57' E 023°36'0 0.0
2017-Oct-03 08:00N 37°57' E 023°36'0 0.0
2017-Oct-03 07:30N 37°57' E 023°36'0 0.0
2017-Oct-03 07:00N 37°57' E 023°36'0 0.0
2017-Oct-03 06:30N 37°57' E 023°36'0 0.0
2017-Oct-03 06:00N 37°57' E 023°36'0 0.0
2017-Oct-03 05:30N 37°57' E 023°36'0 0.0
2017-Oct-03 05:00N 37°57' E 023°36'0 0.0
2017-Oct-03 04:30N 37°57' E 023°36'0 0.0
2017-Oct-03 04:00N 37°57' E 023°36'0 0.0
2017-Oct-03 03:30N 37°57' E 023°36'0 0.0
2017-Oct-03 03:00N 37°57' E 023°36'0 0.0
2017-Oct-03 02:30N 37°57' E 023°36'0 0.0
2017-Oct-03 02:00N 37°57' E 023°36'0 0.0
2017-Oct-03 01:30N 37°57' E 023°36'0 0.0
2017-Oct-03 01:00N 37°57' E 023°36'0 0.0
2017-Oct-03 00:30N 37°57' E 023°36'0 0.0
2017-Oct-03 00:00N 37°57' E 023°36'0 0.0
2017-Oct-02 23:30N 37°57' E 023°36'0 0.0
2017-Oct-02 23:00N 37°57' E 023°36'0 0.0
2017-Oct-02 22:30N 37°57' E 023°36'0 0.0
2017-Oct-02 22:00N 37°57' E 023°36'0 0.0
2017-Oct-02 21:30N 37°57' E 023°36'0 0.0
2017-Oct-02 21:00N 37°57' E 023°36'0 0.0
2017-Oct-02 20:30N 37°57' E 023°36'0 0.0
2017-Oct-02 20:00N 37°57' E 023°36'0 0.0
2017-Oct-02 19:30N 37°57' E 023°36'0 0.0
2017-Oct-02 19:00N 37°57' E 023°36'0 0.0
2017-Oct-02 18:30N 37°57' E 023°36'0 0.0
2017-Oct-02 18:00N 37°57' E 023°36'0 0.0
2017-Oct-02 17:30N 37°57' E 023°36'0 0.0
2017-Oct-02 17:00N 37°57' E 023°36'0 0.0
2017-Oct-02 16:30N 37°57' E 023°36'0 0.0
2017-Oct-02 16:00N 37°57' E 023°36'0 0.0
2017-Oct-02 15:30N 37°57' E 023°36'0 0.0
2017-Oct-02 15:00N 37°57' E 023°36'0 0.0
2017-Oct-02 14:30N 37°57' E 023°36'0 0.0
2017-Oct-02 14:00N 37°57' E 023°36'0 0.0
2017-Oct-02 13:30N 37°57' E 023°36'0 0.0
2017-Oct-02 13:00N 37°57' E 023°36'0 0.0
2017-Oct-02 12:30N 37°57' E 023°36'0 0.0
2017-Oct-02 12:00N 37°57' E 023°36'0 0.0
2017-Oct-02 11:30N 37°57' E 023°36'0 0.0
2017-Oct-02 11:00N 37°57' E 023°36'0 0.0
2017-Oct-02 10:30N 37°57' E 023°36'0 0.0
2017-Oct-02 10:00N 37°57' E 023°36'0 0.0
2017-Oct-02 09:30N 37°57' E 023°36'0 0.0
2017-Oct-02 09:00N 37°57' E 023°36'0 0.0
2017-Oct-02 08:30N 37°57' E 023°36'0 0.0
2017-Oct-02 07:57N 37°57' E 023°36'0 0.0
2017-Oct-02 07:30N 37°57' E 023°36'0 0.0
2017-Oct-02 07:00N 37°57' E 023°36'0 0.0
2017-Oct-02 06:30N 37°57' E 023°36'1 1.6
2017-Oct-02 05:59N 37°57' E 023°35'1 1.8
2017-Oct-02 05:30N 37°56' E 023°35'1 2.6
2017-Oct-02 05:00N 37°57' E 023°36'0 0.0
2017-Oct-02 04:30N 37°57' E 023°36'0 0.0
2017-Oct-02 04:00N 37°57' E 023°36'0 0.0
2017-Oct-02 03:30N 37°57' E 023°36'1 2.5
2017-Oct-02 03:00N 37°56' E 023°38'0 0.4
2017-Oct-02 02:29N 37°56' E 023°38'1 2.8
2017-Oct-02 01:59N 37°57' E 023°36'0 0.0
2017-Oct-01 11:29N 37°57' E 023°36'0 0.0
2017-Oct-01 10:59N 37°57' E 023°36'0 0.2
2017-Oct-01 10:29N 37°57' E 023°36'0 0.2
2017-Oct-01 09:59N 37°57' E 023°36'0 0.0
2017-Oct-01 09:29N 37°57' E 023°36'0 0.0
2017-Oct-01 08:59N 37°57' E 023°36'0 0.0
2017-Oct-01 08:29N 37°57' E 023°36'0 0.0
2017-Oct-01 07:59N 37°57' E 023°36'0 0.0
2017-Oct-01 07:29N 37°57' E 023°36'0 0.0
2017-Oct-01 06:59N 37°57' E 023°36'0 0.0
2017-Oct-01 06:29N 37°57' E 023°36'0 0.0
2017-Oct-01 05:59N 37°57' E 023°36'0 0.0
2017-Oct-01 05:26N 37°57' E 023°36'0 0.0
2017-Oct-01 04:59N 37°57' E 023°36'0 0.0
2017-Oct-01 04:29N 37°57' E 023°36'0 0.0
2017-Oct-01 03:59N 37°57' E 023°36'0 0.0
2017-Oct-01 03:29N 37°57' E 023°36'0 0.0
2017-Oct-01 02:59N 37°57' E 023°36'0 0.0
2017-Sep-30 01:59N 37°57' E 023°36'0 0.0
2017-Sep-30 01:29N 37°57' E 023°36'0 0.0
2017-Sep-30 00:59N 37°57' E 023°36'0 0.0
2017-Sep-30 00:29N 37°57' E 023°36'0 0.0
2017-Sep-29 23:59N 37°57' E 023°36'0 0.0
2017-Sep-29 23:29N 37°57' E 023°36'0 0.0
2017-Sep-29 22:59N 37°57' E 023°36'0 0.0
2017-Sep-29 22:29N 37°57' E 023°36'0 0.0
2017-Sep-29 21:59N 37°57' E 023°36'0 0.0
2017-Sep-29 21:29N 37°57' E 023°36'0 0.0
2017-Sep-29 20:59N 37°57' E 023°36'0 0.0
2017-Sep-29 20:29N 37°57' E 023°36'0 0.0
2017-Sep-29 19:59N 37°57' E 023°36'0 0.0
2017-Sep-29 19:29N 37°57' E 023°36'0 0.0
2017-Sep-29 18:59N 37°57' E 023°36'0 0.0
2017-Sep-29 18:29N 37°57' E 023°36'0 0.0
2017-Sep-29 17:59N 37°57' E 023°36'0 0.0
2017-Sep-29 17:29N 37°57' E 023°36'0 0.0
2017-Sep-29 16:59N 37°57' E 023°36'0 0.0
2017-Sep-29 16:29N 37°57' E 023°36'0 0.0
2017-Sep-29 15:59N 37°57' E 023°36'0 0.0
2017-Sep-29 15:29N 37°57' E 023°36'0 0.0
2017-Sep-29 14:59N 37°57' E 023°36'0 0.0
2017-Sep-29 14:29N 37°57' E 023°36'0 0.0
2017-Sep-29 13:59N 37°57' E 023°36'0 0.0
2017-Sep-29 13:29N 37°57' E 023°36'0 0.0
2017-Sep-29 12:56N 37°57' E 023°36'0 0.0
2017-Sep-29 12:29N 37°57' E 023°36'0 0.0
2017-Sep-29 11:59N 37°57' E 023°36'0 0.0
2017-Sep-29 11:29N 37°57' E 023°36'0 0.0
2017-Sep-29 10:59N 37°57' E 023°36'0 0.0
2017-Sep-29 10:29N 37°57' E 023°36'0 0.0
2017-Sep-29 09:59N 37°57' E 023°36'0 0.0
2017-Sep-29 09:29N 37°57' E 023°36'0 0.0
2017-Sep-29 08:59N 37°57' E 023°36'0 0.0
2017-Sep-29 08:29N 37°57' E 023°36'0 0.0
2017-Sep-29 07:59N 37°57' E 023°36'0 0.0
2017-Sep-29 07:29N 37°57' E 023°36'0 0.0
2017-Sep-29 06:59N 37°57' E 023°36'0 0.0
2017-Sep-29 06:26N 37°57' E 023°36'0 0.0
2017-Sep-29 05:59N 37°57' E 023°36'0 0.0
2017-Sep-29 05:29N 37°57' E 023°36'0 0.0
2017-Sep-29 04:59N 37°57' E 023°36'0 0.0
2017-Sep-29 04:29N 37°57' E 023°36'0 0.0
2017-Sep-29 03:59N 37°57' E 023°36'0 0.0
2017-Sep-29 03:29N 37°57' E 023°36'0 0.0
2017-Sep-29 02:59N 37°57' E 023°36'0 0.0
2017-Sep-29 02:29N 37°57' E 023°36'0 0.0
2017-Sep-29 01:59N 37°57' E 023°36'0 0.0
2017-Sep-29 01:29N 37°57' E 023°36'0 0.0
2017-Sep-29 00:56N 37°57' E 023°36'0 0.0
2017-Sep-29 00:29N 37°57' E 023°36'0 0.0
2017-Sep-28 23:59N 37°57' E 023°36'0 0.0
2017-Sep-28 23:29N 37°57' E 023°36'0 0.0
2017-Sep-28 22:53N 37°57' E 023°36'0 0.0
2017-Sep-28 22:29N 37°57' E 023°36'0 0.0
2017-Sep-28 21:59N 37°57' E 023°36'0 0.0
2017-Sep-28 21:29N 37°57' E 023°36'0 0.0
2017-Sep-28 20:59N 37°57' E 023°36'0 0.0
2017-Sep-28 20:29N 37°57' E 023°36'0 0.0
2017-Sep-28 19:59N 37°57' E 023°36'0 0.0
2017-Sep-28 19:29N 37°57' E 023°36'0 0.0
2017-Sep-28 18:59N 37°57' E 023°36'0 0.0
2017-Sep-28 18:29N 37°57' E 023°36'0 0.0
2017-Sep-28 17:59N 37°57' E 023°36'0 0.0
2017-Sep-28 17:29N 37°57' E 023°36'0 0.0
2017-Sep-28 16:56N 37°57' E 023°36'0 0.0
2017-Sep-28 16:29N 37°57' E 023°36'0 0.0
2017-Sep-28 15:59N 37°57' E 023°36'0 0.0
2017-Sep-28 15:29N 37°57' E 023°36'0 0.0
2017-Sep-28 14:59N 37°57' E 023°36'0 0.0
2017-Sep-28 14:29N 37°57' E 023°36'0 0.0
2017-Sep-28 13:59N 37°57' E 023°36'0 0.0
2017-Sep-28 13:29N 37°57' E 023°36'0 0.0
2017-Sep-28 12:59N 37°57' E 023°36'0 0.0
2017-Sep-28 12:29N 37°57' E 023°36'0 0.0
2017-Sep-28 11:59N 37°57' E 023°36'0 0.0
2017-Sep-28 11:29N 37°57' E 023°36'0 0.0
2017-Sep-28 10:59N 37°57' E 023°36'0 0.0
2017-Sep-28 10:29N 37°57' E 023°36'0 0.0
2017-Sep-28 09:59N 37°57' E 023°36'0 0.0
2017-Sep-28 09:29N 37°57' E 023°36'0 0.0
2017-Sep-28 08:59N 37°57' E 023°36'0 0.0
2017-Sep-28 08:29N 37°57' E 023°36'0 0.0
2017-Sep-28 07:59N 37°57' E 023°36'0 0.0
2017-Sep-28 07:26N 37°57' E 023°36'0 0.0
2017-Sep-28 06:59N 37°57' E 023°36'0 0.0
2017-Sep-28 06:29N 37°57' E 023°36'0 0.0
2017-Sep-28 05:59N 37°57' E 023°36'0 0.0
2017-Sep-28 05:26N 37°57' E 023°36'0 0.0
2017-Sep-28 04:59N 37°57' E 023°36'0 0.0
2017-Sep-28 04:29N 37°57' E 023°36'0 0.0
2017-Sep-28 03:59N 37°57' E 023°36'0 0.0
2017-Sep-28 03:29N 37°57' E 023°36'0 0.0
2017-Sep-28 02:59N 37°57' E 023°36'0 0.0
2017-Sep-28 02:29N 37°57' E 023°36'0 0.0
2017-Sep-28 01:59N 37°57' E 023°36'0 0.0
2017-Sep-28 01:29N 37°57' E 023°36'0 0.0
2017-Sep-28 00:56N 37°57' E 023°36'0 0.0
2017-Sep-28 00:26N 37°57' E 023°36'0 0.0
2017-Sep-27 23:59N 37°57' E 023°36'0 0.0
2017-Sep-27 23:29N 37°57' E 023°36'0 0.0
2017-Sep-27 22:59N 37°57' E 023°36'0 0.0
2017-Sep-27 22:29N 37°57' E 023°36'0 0.0
2017-Sep-27 21:59N 37°57' E 023°36'0 0.0
2017-Sep-27 21:29N 37°57' E 023°36'0 0.0
2017-Sep-27 20:59N 37°57' E 023°36'0 0.0
2017-Sep-27 20:29N 37°57' E 023°36'0 0.0
2017-Sep-27 19:59N 37°57' E 023°36'0 0.0
2017-Sep-27 19:29N 37°57' E 023°36'0 0.0
2017-Sep-27 18:56N 37°57' E 023°36'0 0.0
2017-Sep-27 18:29N 37°57' E 023°36'0 0.0
2017-Sep-27 17:59N 37°57' E 023°36'0 0.0
2017-Sep-27 17:29N 37°57' E 023°36'0 0.0
2017-Sep-27 16:59N 37°57' E 023°36'0 0.0
2017-Sep-27 16:29N 37°57' E 023°36'0 0.0
2017-Sep-27 15:59N 37°57' E 023°36'0 0.0
2017-Sep-27 15:29N 37°57' E 023°36'0 0.0
2017-Sep-27 14:56N 37°57' E 023°36'0 0.0
2017-Sep-27 14:29N 37°57' E 023°36'0 0.0
2017-Sep-27 13:59N 37°57' E 023°36'0 0.0
2017-Sep-27 13:29N 37°57' E 023°36'0 0.0
2017-Sep-27 12:59N 37°57' E 023°36'0 0.0
2017-Sep-27 12:29N 37°57' E 023°36'0 0.0
2017-Sep-27 11:59N 37°57' E 023°36'0 0.0
2017-Sep-27 11:29N 37°57' E 023°36'0 0.0
2017-Sep-27 10:59N 37°57' E 023°36'0 0.0
2017-Sep-27 10:29N 37°57' E 023°36'0 0.0
2017-Sep-27 09:59N 37°57' E 023°36'0 0.0
2017-Sep-27 09:29N 37°57' E 023°36'1 1.1
2017-Sep-27 08:59N 37°57' E 023°37'0 0.0
2017-Sep-27 08:29N 37°57' E 023°37'0 0.0
2017-Sep-27 07:59N 37°57' E 023°37'0 0.0
2017-Sep-27 07:29N 37°57' E 023°37'0 0.0
2017-Sep-27 06:59N 37°57' E 023°37'0 0.0
2017-Sep-27 06:29N 37°57' E 023°37'0 0.0
2017-Sep-27 05:59N 37°57' E 023°37'0 0.9
2017-Sep-27 05:30N 37°57' E 023°36'0 0.5
2017-Sep-27 04:59N 37°57' E 023°36'0 0.0
2017-Sep-27 04:29N 37°57' E 023°36'0 0.0
2017-Sep-27 03:59N 37°57' E 023°36'0 0.0
2017-Sep-27 03:29N 37°57' E 023°36'0 0.0
2017-Sep-27 02:59N 37°57' E 023°36'0 0.0
2017-Sep-27 02:29N 37°57' E 023°36'0 0.0
2017-Sep-27 01:59N 37°57' E 023°36'0 0.0
2017-Sep-27 01:29N 37°57' E 023°36'0 0.0
2017-Sep-27 00:59N 37°57' E 023°36'0 0.0
2017-Sep-27 00:29N 37°57' E 023°36'0 0.0
2017-Sep-26 23:59N 37°57' E 023°36'0 0.0
2017-Sep-26 23:29N 37°57' E 023°36'0 0.0
2017-Sep-26 22:59N 37°57' E 023°36'0 0.0
2017-Sep-26 22:29N 37°57' E 023°36'0 0.0
2017-Sep-26 21:59N 37°57' E 023°36'0 0.0
2017-Sep-26 21:29N 37°57' E 023°36'0 0.0
2017-Sep-26 20:59N 37°57' E 023°36'0 0.0
2017-Sep-26 20:29N 37°57' E 023°36'0 0.0
2017-Sep-26 19:59N 37°57' E 023°36'0 0.0
2017-Sep-26 19:29N 37°57' E 023°36'0 0.0
2017-Sep-26 18:59N 37°57' E 023°36'0 0.0
2017-Sep-26 18:29N 37°57' E 023°36'0 0.0
2017-Sep-26 17:59N 37°57' E 023°36'0 0.0
2017-Sep-26 17:29N 37°57' E 023°36'0 0.0
2017-Sep-26 16:59N 37°57' E 023°36'0 0.0
2017-Sep-26 16:29N 37°57' E 023°36'0 0.0
2017-Sep-26 15:59N 37°57' E 023°36'0 0.0
2017-Sep-26 15:29N 37°57' E 023°36'0 0.0
2017-Sep-26 14:59N 37°57' E 023°36'0 0.0
2017-Sep-26 14:29N 37°57' E 023°36'0 0.0
2017-Sep-26 13:59N 37°57' E 023°36'0 0.0
2017-Sep-26 13:29N 37°57' E 023°36'0 0.0
2017-Sep-26 12:59N 37°57' E 023°36'0 0.0
2017-Sep-26 12:29N 37°57' E 023°36'0 0.0
2017-Sep-26 11:59N 37°57' E 023°36'0 0.0
2017-Sep-26 11:29N 37°57' E 023°36'  

Dump ship's entire track history